createdAt,value
2022-12-09T00:02:23.526Z,7.82
2022-12-09T00:07:29.659Z,8.60
2022-12-09T00:12:36.149Z,7.99
2022-12-09T00:17:42.193Z,7.73
2022-12-09T00:22:48.199Z,8.22
2022-12-09T00:27:54.683Z,8.25
2022-12-09T00:33:00.803Z,8.26
2022-12-09T00:38:07.113Z,7.61
2022-12-09T00:43:13.209Z,8.15
2022-12-09T00:48:19.209Z,8.20
2022-12-09T00:53:25.461Z,7.06
2022-12-09T00:58:31.697Z,7.87
2022-12-09T01:03:37.824Z,7.55
2022-12-09T01:08:43.906Z,7.44
2022-12-09T01:13:49.968Z,7.48
2022-12-09T01:18:56.070Z,7.45
2022-12-09T01:24:02.250Z,7.57
2022-12-09T01:29:08.491Z,7.10
2022-12-09T01:34:14.554Z,7.55
2022-12-09T01:39:21.202Z,8.30
2022-12-09T01:44:27.274Z,8.13
2022-12-09T01:49:33.647Z,7.99
2022-12-09T01:54:39.788Z,8.17
2022-12-09T01:59:46.048Z,7.71
2022-12-09T02:04:52.382Z,7.37
2022-12-09T02:09:58.618Z,7.91
2022-12-09T02:15:04.684Z,8.02
2022-12-09T02:20:10.836Z,8.04
2022-12-09T02:25:16.424Z,8.21
2022-12-09T02:30:22.628Z,7.80
2022-12-09T02:35:28.526Z,8.05
2022-12-09T02:40:34.701Z,7.87
2022-12-09T02:45:40.852Z,7.91
2022-12-09T02:50:47.446Z,7.80
2022-12-09T02:55:53.423Z,8.02
2022-12-09T03:00:59.746Z,7.96
2022-12-09T03:06:05.942Z,7.73
2022-12-09T03:11:12.704Z,8.37
2022-12-09T03:16:18.603Z,8.50
2022-12-09T03:21:24.638Z,8.50
2022-12-09T03:26:31.001Z,8.46
2022-12-09T03:31:37.223Z,9.17
2022-12-09T03:36:43.805Z,8.77
2022-12-09T03:41:49.992Z,9.06
2022-12-09T03:46:56.497Z,8.80
2022-12-09T03:52:02.972Z,8.75
2022-12-09T03:57:13.646Z,8.92
2022-12-09T04:02:14.962Z,9.54
2022-12-09T04:07:21.565Z,9.31
2022-12-09T04:12:27.771Z,9.27
2022-12-09T04:17:34.091Z,9.36
2022-12-09T04:22:40.386Z,10.00
2022-12-09T04:27:46.797Z,10.15
2022-12-09T04:32:52.882Z,9.97
2022-12-09T04:37:59.086Z,10.31
2022-12-09T04:43:05.161Z,9.66
2022-12-09T04:48:11.733Z,9.88
2022-12-09T04:53:17.564Z,10.35
2022-12-09T04:58:24.115Z,10.18
2022-12-09T05:03:32.217Z,9.85
2022-12-09T05:08:39.382Z,10.58
2022-12-09T05:13:45.410Z,9.47
2022-12-09T05:18:51.537Z,10.24
2022-12-09T05:23:56.881Z,9.63
2022-12-09T05:29:03.059Z,10.04
2022-12-09T05:34:09.497Z,9.38
2022-12-09T05:39:15.399Z,9.87
2022-12-09T05:44:21.589Z,9.36
2022-12-09T05:49:27.950Z,9.09
2022-12-09T05:54:33.979Z,9.28
2022-12-09T05:59:40.309Z,9.18
2022-12-09T06:04:46.442Z,9.87
2022-12-09T06:09:52.611Z,9.26
2022-12-09T06:14:58.955Z,9.86
2022-12-09T06:20:04.808Z,9.84
2022-12-09T06:25:10.555Z,10.38
2022-12-09T06:30:16.132Z,10.09
2022-12-09T06:35:21.488Z,10.27
2022-12-09T06:40:27.193Z,10.28
2022-12-09T06:45:33.299Z,10.32
2022-12-09T06:50:39.771Z,10.69
2022-12-09T06:55:45.719Z,9.95
2022-12-09T07:00:52.498Z,10.09
2022-12-09T07:05:58.659Z,10.19
2022-12-09T07:11:04.867Z,9.70
2022-12-09T07:16:10.496Z,10.40
2022-12-09T07:21:16.332Z,10.45
2022-12-09T07:26:22.293Z,10.27
2022-12-09T07:31:28.932Z,9.98
2022-12-09T07:36:34.530Z,10.49
2022-12-09T07:41:40.711Z,10.74
2022-12-09T07:46:50.741Z,10.64
2022-12-09T07:51:56.826Z,11.07
2022-12-09T07:57:03.693Z,10.53
2022-12-09T08:02:09.539Z,11.32
2022-12-09T08:07:14.857Z,11.82
2022-12-09T08:12:20.770Z,11.48
2022-12-09T08:17:26.750Z,16.98
2022-12-09T08:22:33.171Z,12.25
2022-12-09T08:27:39.651Z,12.39
2022-12-09T08:32:48.535Z,12.25
2022-12-09T08:37:54.016Z,12.64
2022-12-09T08:43:03.753Z,12.53
2022-12-09T08:48:10.310Z,12.98
2022-12-09T08:53:16.025Z,21.12
2022-12-09T08:58:21.932Z,14.77
2022-12-09T09:03:28.222Z,14.90
2022-12-09T09:08:34.348Z,22.92
2022-12-09T09:13:40.832Z,21.61
2022-12-09T09:18:46.564Z,14.25
2022-12-09T09:23:52.598Z,14.98
2022-12-09T09:28:57.979Z,14.36
2022-12-09T09:34:04.159Z,13.71
2022-12-09T09:39:09.911Z,14.90
2022-12-09T09:44:16.114Z,14.79
2022-12-09T09:49:22.866Z,15.16
2022-12-09T09:55:33.953Z,16.46
2022-12-09T10:00:39.848Z,14.94
2022-12-09T10:05:45.847Z,13.15
2022-12-09T10:10:51.562Z,14.11
2022-12-09T10:15:57.590Z,13.63
2022-12-09T10:21:02.662Z,13.30
2022-12-09T10:26:08.702Z,13.65
2022-12-09T10:31:14.386Z,13.77
2022-12-09T10:36:20.810Z,14.40
2022-12-09T10:41:27.013Z,13.93
2022-12-09T10:46:32.542Z,13.17
2022-12-09T10:51:38.888Z,13.58
2022-12-09T10:56:44.413Z,12.88
2022-12-09T11:01:50.693Z,12.85
2022-12-09T11:06:59.335Z,11.69
2022-12-09T11:12:02.216Z,11.88
2022-12-09T11:17:07.988Z,11.85
2022-12-09T11:22:13.598Z,12.36
2022-12-09T11:27:19.316Z,12.70
2022-12-09T11:32:25.382Z,12.35
2022-12-09T11:37:31.375Z,13.30
2022-12-09T11:42:37.778Z,13.40
2022-12-09T11:48:22.659Z,13.17
2022-12-09T11:52:49.606Z,12.08
2022-12-09T11:57:56.160Z,12.86
2022-12-09T12:03:29.927Z,13.60
2022-12-09T12:08:36.272Z,12.15
2022-12-09T12:13:42.265Z,12.61
2022-12-09T12:18:48.884Z,12.45
2022-12-09T12:23:55.033Z,13.68
2022-12-09T12:29:06.935Z,13.31
2022-12-09T12:34:25.337Z,14.35
2022-12-09T12:39:12.602Z,14.91
2022-12-09T12:44:18.773Z,15.09
2022-12-09T12:49:24.983Z,15.58
2022-12-09T12:54:31.060Z,15.84
2022-12-09T12:59:37.244Z,15.93
2022-12-09T13:04:43.407Z,16.46
2022-12-09T13:09:49.655Z,15.88
2022-12-09T13:14:55.842Z,17.12
2022-12-09T13:20:02.058Z,16.75
2022-12-09T13:25:08.177Z,18.08
2022-12-09T13:30:14.379Z,17.30
2022-12-09T13:35:20.451Z,16.64
2022-12-09T13:40:26.835Z,16.69
2022-12-09T13:45:33.004Z,17.71
2022-12-09T13:50:39.242Z,16.49
2022-12-09T13:55:45.395Z,15.92
2022-12-09T14:01:04.264Z,17.00
2022-12-09T14:05:54.655Z,17.17
2022-12-09T14:11:01.040Z,17.97
2022-12-09T14:16:07.471Z,16.75
2022-12-09T14:21:13.560Z,16.87
2022-12-09T14:26:19.659Z,16.26
2022-12-09T14:31:26.322Z,17.05
2022-12-09T14:36:32.375Z,16.57
2022-12-09T14:41:38.519Z,17.61
2022-12-09T14:46:44.648Z,17.24
2022-12-09T14:51:50.809Z,17.42
2022-12-09T14:56:56.895Z,17.29
2022-12-09T15:02:03.140Z,17.68
2022-12-09T15:07:09.250Z,17.45
2022-12-09T15:12:15.565Z,17.26
2022-12-09T15:17:21.812Z,18.28
2022-12-09T15:22:27.972Z,18.35
2022-12-09T15:27:34.374Z,18.17
2022-12-09T15:32:40.600Z,18.19
2022-12-09T15:37:46.806Z,18.02
2022-12-09T15:42:53.056Z,19.09
2022-12-09T15:47:59.164Z,18.08
2022-12-09T15:53:05.764Z,18.67
2022-12-09T15:58:11.883Z,18.62
2022-12-09T16:03:18.516Z,19.38
2022-12-09T16:08:24.673Z,19.41
2022-12-09T16:13:30.952Z,19.75
2022-12-09T16:18:37.111Z,19.79
2022-12-09T16:23:43.422Z,20.71
2022-12-09T16:28:49.506Z,24.37
2022-12-09T16:33:55.791Z,28.20
2022-12-09T16:39:01.979Z,20.27
2022-12-09T16:44:08.269Z,19.38
2022-12-09T16:49:14.415Z,18.97
2022-12-09T16:54:21.036Z,20.09
2022-12-09T16:59:30.174Z,18.86
2022-12-09T17:04:32.337Z,19.44
2022-12-09T17:09:38.549Z,20.04
2022-12-09T17:14:44.686Z,20.83
2022-12-09T17:19:50.806Z,20.70
2022-12-09T17:24:57.113Z,21.14
2022-12-09T17:30:03.320Z,21.78
2022-12-09T17:35:12.738Z,21.71
2022-12-09T17:40:15.232Z,22.74
2022-12-09T17:45:21.438Z,21.82
2022-12-09T17:50:27.618Z,24.00
2022-12-09T17:55:34.228Z,23.45
2022-12-09T18:00:40.560Z,23.01
2022-12-09T18:05:47.471Z,22.38
2022-12-09T18:10:53.998Z,22.23
2022-12-09T18:16:00.254Z,23.06
2022-12-09T18:21:10.587Z,23.41
2022-12-09T18:26:12.525Z,23.84
2022-12-09T18:31:19.187Z,23.01
2022-12-09T18:36:25.279Z,23.55
2022-12-09T18:41:31.331Z,24.30
2022-12-09T18:46:37.850Z,22.86
2022-12-09T18:51:43.806Z,23.08
2022-12-09T18:56:49.916Z,21.49
2022-12-09T19:01:56.078Z,22.25
2022-12-09T19:07:02.227Z,22.47
2022-12-09T19:12:38.390Z,21.97
2022-12-09T19:17:14.379Z,22.73
2022-12-09T19:22:20.808Z,22.89
2022-12-09T19:27:27.106Z,23.03
2022-12-09T19:32:51.827Z,23.03
2022-12-09T19:37:39.986Z,22.60
2022-12-09T19:42:46.265Z,22.02
2022-12-09T19:47:52.445Z,22.08
2022-12-09T19:52:58.571Z,22.92
2022-12-09T19:58:05.608Z,22.86
2022-12-09T20:03:11.836Z,23.60
2022-12-09T20:08:18.013Z,23.72
2022-12-09T20:13:28.629Z,23.14
2022-12-09T20:18:29.844Z,22.41
2022-12-09T20:23:49.479Z,23.66
2022-12-09T20:28:56.076Z,22.34
2022-12-09T20:34:02.949Z,22.44
2022-12-09T20:39:09.101Z,21.11
2022-12-09T20:44:15.239Z,20.70
2022-12-09T20:49:21.375Z,21.43
2022-12-09T20:54:27.666Z,20.33
2022-12-09T20:59:33.819Z,20.19
2022-12-09T21:04:39.966Z,21.71
2022-12-09T21:09:46.186Z,20.20
2022-12-09T21:14:52.253Z,20.15
2022-12-09T21:19:58.380Z,20.04
2022-12-09T21:25:04.496Z,21.11
2022-12-09T21:30:10.779Z,20.20
2022-12-09T21:35:16.749Z,20.33
2022-12-09T21:40:23.171Z,20.02
2022-12-09T21:45:29.423Z,19.51
2022-12-09T21:50:35.543Z,19.80
2022-12-09T21:55:41.608Z,20.16
2022-12-09T22:00:47.924Z,19.88
2022-12-09T22:05:58.118Z,19.43
2022-12-09T22:10:59.891Z,20.12
2022-12-09T22:16:06.091Z,19.48
2022-12-09T22:21:25.310Z,19.57
2022-12-09T22:26:18.317Z,19.16
2022-12-09T22:31:24.599Z,19.40
2022-12-09T22:36:30.746Z,19.00
2022-12-09T22:41:37.239Z,18.79
2022-12-09T22:47:00.405Z,20.89
2022-12-09T22:52:06.973Z,19.93
2022-12-09T22:57:14.493Z,18.94
2022-12-09T23:02:19.436Z,19.96
2022-12-09T23:07:25.483Z,19.24
2022-12-09T23:12:31.889Z,18.73
2022-12-09T23:17:38.047Z,18.48
2022-12-09T23:22:44.235Z,18.69
2022-12-09T23:27:50.291Z,18.54
2022-12-09T23:32:56.490Z,18.82
2022-12-09T23:38:02.968Z,18.66
2022-12-09T23:43:09.160Z,18.50
2022-12-09T23:48:15.367Z,19.04
2022-12-09T23:53:21.520Z,18.33
2022-12-09T23:58:27.695Z,18.31
